Time;durP1;ratioP1;P1;durP2;ratioP2;P2;SDS_P1;SDS_P2;PMS_P1;PMS_P2;Temp;Humidity;BMP_temperature;BMP_pressure;BME280_temperature;BME280_humidity;BME280_pressure;Samples;Min_cycle;Max_cycle;Signal;HPM_P1;HPM_P2
2022/04/05 00:01:03;;;;;;;14.48;6.18;;;9.30;51.10;;;;;;5991422;29;20049;-70
2022/04/05 00:04:05;;;;;;;14.45;7.13;;;9.30;51.10;;;;;;6025031;29;20033;-71
2022/04/05 00:07:06;;;;;;;10.90;6.85;;;9.30;51.30;;;;;;6008287;29;20042;-69
2022/04/05 00:10:07;;;;;;;18.40;7.97;;;9.20;51.50;;;;;;6010748;29;20379;-71
2022/04/05 00:13:08;;;;;;;16.23;7.20;;;9.20;51.80;;;;;;6023992;29;20029;-69
2022/04/05 00:16:10;;;;;;;14.85;7.13;;;9.20;52.10;;;;;;6022119;29;20797;-71
2022/04/05 00:19:11;;;;;;;13.82;7.35;;;9.20;52.20;;;;;;6008721;29;20062;-72
2022/04/05 00:22:12;;;;;;;16.58;8.65;;;9.10;52.30;;;;;;6023046;29;20056;-70
2022/04/05 00:25:13;;;;;;;15.13;7.28;;;9.10;52.50;;;;;;6006278;29;20044;-70
2022/04/05 00:28:14;;;;;;;16.80;6.82;;;9.10;52.40;;;;;;6023667;29;20026;-71
2022/04/05 00:31:14;;;;;;;13.60;6.80;;;9.00;52.30;;;;;;6021483;29;20042;-70
2022/04/05 00:34:15;;;;;;;18.20;7.43;;;9.00;52.30;;;;;;6005336;29;20125;-73
2022/04/05 00:37:16;;;;;;;18.77;7.80;;;9.00;52.20;;;;;;6017846;29;20056;-70
2022/04/05 00:40:17;;;;;;;17.92;7.10;;;9.00;52.20;;;;;;6024911;29;20082;-70
2022/04/05 00:43:18;;;;;;;20.25;7.05;;;8.90;52.20;;;;;;6023961;29;20052;-72
2022/04/05 00:46:19;;;;;;;16.10;6.70;;;8.90;52.20;;;;;;6002178;29;20033;-71
2022/04/05 00:49:33;;;;;;;12.73;6.72;;;8.90;52.20;;;;;;6006149;29;20638;-71
2022/04/05 00:52:34;;;;;;;13.70;6.45;;;8.90;52.20;;;;;;6018837;29;20340;-70
2022/04/05 00:55:36;;;;;;;24.80;7.72;;;8.80;52.30;;;;;;6005832;29;20040;-70
2022/04/05 00:58:37;;;;;;;14.25;6.75;;;8.80;52.30;;;;;;6022024;29;20039;-73
2022/04/05 01:01:39;;;;;;;14.40;6.90;;;8.80;52.40;;;;;;6022173;29;20479;-70
2022/04/05 01:04:42;;;;;;;14.65;7.07;;;8.80;52.40;;;;;;6021475;29;20034;-70
2022/04/05 01:07:47;;;;;;;12.63;6.28;;;8.70;52.40;;;;;;6004418;29;20049;-71
2022/04/05 01:10:49;;;;;;;14.85;6.72;;;8.70;52.50;;;;;;6003766;29;20070;-71
2022/04/05 01:13:50;;;;;;;17.17;7.45;;;8.70;52.50;;;;;;6006958;29;20038;-70
2022/04/05 01:16:51;;;;;;;20.75;7.45;;;8.60;52.50;;;;;;6001482;29;20069;-70
2022/04/05 01:19:52;;;;;;;16.02;6.60;;;8.60;52.60;;;;;;6005254;29;20362;-71
2022/04/05 01:22:54;;;;;;;15.77;7.40;;;8.60;52.80;;;;;;6020331;29;20072;-70
2022/04/05 01:25:56;;;;;;;16.42;7.30;;;8.50;52.80;;;;;;6005824;29;20084;-73
2022/04/05 01:28:57;;;;;;;21.27;7.28;;;8.50;53.00;;;;;;5989676;29;20062;-71
2022/04/05 01:32:01;;;;;;;18.10;8.55;;;8.50;53.00;;;;;;6021068;29;20516;-70
2022/04/05 01:35:03;;;;;;;16.02;7.63;;;8.50;53.10;;;;;;5991896;29;20048;-70
2022/04/05 01:38:04;;;;;;;15.93;8.15;;;8.40;53.10;;;;;;6002660;29;20068;-73
2022/04/05 01:41:05;;;;;;;22.15;7.25;;;8.40;53.20;;;;;;6020047;29;20053;-70
2022/04/05 01:44:07;;;;;;;14.88;7.07;;;8.40;53.30;;;;;;5988656;29;20057;-71
2022/04/05 01:47:11;;;;;;;15.30;7.35;;;8.40;53.50;;;;;;6019672;29;20101;-72
2022/04/05 01:50:12;;;;;;;17.83;7.65;;;8.40;53.70;;;;;;6020250;29;20387;-71
2022/04/05 01:53:14;;;;;;;17.92;8.07;;;8.40;53.80;;;;;;6021331;29;20125;-71
2022/04/05 01:56:15;;;;;;;16.63;8.07;;;8.30;53.90;;;;;;6002383;29;20096;-70
2022/04/05 01:59:24;;;;;;;13.73;7.07;;;8.30;54.00;;;;;;6003650;29;20050;-70
2022/04/05 02:02:25;;;;;;;18.25;7.50;;;8.30;54.10;;;;;;6011014;29;20120;-70
2022/04/05 02:05:26;;;;;;;15.38;7.05;;;8.20;54.00;;;;;;6003573;29;20034;-70
2022/04/05 02:08:27;;;;;;;16.60;7.40;;;8.20;54.20;;;;;;6004136;29;20416;-71
2022/04/05 02:11:28;;;;;;;21.05;8.07;;;8.20;54.20;;;;;;5986952;29;20042;-71
2022/04/05 02:14:37;;;;;;;15.68;6.78;;;8.10;54.20;;;;;;6004390;29;20048;-71
2022/04/05 02:17:41;;;;;;;13.93;7.60;;;8.10;54.20;;;;;;5999583;29;20042;-70
2022/04/05 02:20:43;;;;;;;20.27;7.25;;;8.00;54.30;;;;;;6006403;29;20053;-69
2022/04/05 02:23:45;;;;;;;14.80;7.68;;;8.00;54.40;;;;;;6017722;29;20057;-71
2022/04/05 02:26:52;;;;;;;19.55;7.28;;;8.00;54.50;;;;;;6004462;29;20124;-70
2022/04/05 02:29:56;;;;;;;17.42;6.82;;;7.90;54.50;;;;;;6005577;29;20034;-70
2022/04/05 02:32:58;;;;;;;17.13;7.20;;;7.90;54.70;;;;;;6004230;29;20106;-71
2022/04/05 02:36:03;;;;;;;15.43;7.38;;;7.90;54.80;;;;;;5989759;29;20132;-70
2022/04/05 02:39:11;;;;;;;14.20;6.05;;;7.90;54.90;;;;;;6001722;29;20030;-72
2022/04/05 02:42:13;;;;;;;14.75;7.13;;;7.90;55.00;;;;;;5999022;29;20042;-71
2022/04/05 02:45:16;;;;;;;17.83;6.90;;;7.90;55.00;;;;;;6018410;29;20070;-72
2022/04/05 02:48:18;;;;;;;17.58;7.95;;;7.90;55.00;;;;;;6003742;29;20042;-70
2022/04/05 02:51:21;;;;;;;13.30;6.75;;;7.90;55.10;;;;;;6000236;29;20038;-70
2022/04/05 02:54:22;;;;;;;15.32;7.22;;;7.90;55.10;;;;;;6004746;29;20049;-70
2022/04/05 02:57:27;;;;;;;11.95;6.15;;;7.90;55.10;;;;;;6001197;29;20047;-70
2022/04/05 03:00:32;;;;;;;18.20;6.28;;;7.90;55.10;;;;;;5988090;29;20105;-71
2022/04/05 03:03:37;;;;;;;16.20;6.72;;;7.90;55.00;;;;;;6003722;29;20038;-70
2022/04/05 03:06:38;;;;;;;16.70;7.82;;;7.90;55.00;;;;;;6001277;29;20042;-71
2022/04/05 03:09:40;;;;;;;13.85;6.47;;;7.90;55.10;;;;;;6003197;29;20056;-70
2022/04/05 03:12:42;;;;;;;14.52;5.90;;;7.90;55.20;;;;;;6000783;29;20034;-71
2022/04/05 03:15:43;;;;;;;13.27;6.93;;;7.90;55.30;;;;;;6002333;29;20068;-70
2022/04/05 03:18:50;;;;;;;19.33;6.88;;;7.80;55.30;;;;;;5998755;29;20053;-70
2022/04/05 03:21:52;;;;;;;12.52;5.95;;;7.80;55.30;;;;;;6004119;29;20042;-71
2022/04/05 03:24:53;;;;;;;14.80;6.55;;;7.80;55.30;;;;;;6018580;29;20061;-71
2022/04/05 03:27:54;;;;;;;18.23;7.20;;;7.80;55.30;;;;;;6003741;29;20068;-71
2022/04/05 03:30:58;;;;;;;17.90;7.88;;;7.80;55.40;;;;;;6002554;29;20508;-71
2022/04/05 03:34:00;;;;;;;14.75;7.22;;;7.70;55.40;;;;;;6017638;29;20426;-70
2022/04/05 03:37:01;;;;;;;18.80;8.57;;;7.70;55.60;;;;;;5995281;29;20049;-71
2022/04/05 03:40:06;;;;;;;15.93;8.20;;;7.70;55.90;;;;;;6001981;29;20071;-71
2022/04/05 03:43:11;;;;;;;17.77;9.48;;;7.70;56.30;;;;;;6016897;29;20042;-72
2022/04/05 03:46:12;;;;;;;17.38;7.85;;;7.60;56.50;;;;;;5999129;29;20046;-71
2022/04/05 03:49:13;;;;;;;17.40;8.35;;;7.60;56.70;;;;;;6002428;29;20066;-69
2022/04/05 03:52:14;;;;;;;14.13;7.30;;;7.60;56.80;;;;;;5999883;29;20041;-70
2022/04/05 03:55:15;;;;;;;17.52;7.82;;;7.50;56.80;;;;;;5996436;29;20068;-70
2022/04/05 03:58:21;;;;;;;13.93;6.65;;;7.50;57.00;;;;;;6001386;29;20459;-69
2022/04/05 04:01:22;;;;;;;16.08;7.85;;;7.50;57.00;;;;;;5987624;29;20469;-71
2022/04/05 04:04:24;;;;;;;18.23;8.23;;;7.50;57.00;;;;;;6000262;29;20034;-71
2022/04/05 04:07:25;;;;;;;21.63;7.93;;;7.50;56.80;;;;;;6020217;29;20045;-71
2022/04/05 04:10:26;;;;;;;22.10;7.63;;;7.50;56.70;;;;;;6000669;29;20077;-70
2022/04/05 04:13:31;;;;;;;13.38;7.50;;;7.50;56.70;;;;;;6001259;29;20049;-70
2022/04/05 04:16:37;;;;;;;18.67;7.47;;;7.50;56.60;;;;;;6003128;29;20065;-71
2022/04/05 04:19:38;;;;;;;11.40;6.28;;;7.50;56.40;;;;;;5998613;29;20424;-70
2022/04/05 04:22:38;;;;;;;17.33;7.47;;;7.50;56.40;;;;;;6000918;29;20051;-69
2022/04/05 04:25:40;;;;;;;22.00;8.18;;;7.50;56.40;;;;;;6001616;29;20041;-70
2022/04/05 04:28:41;;;;;;;17.38;7.20;;;7.40;56.40;;;;;;6022192;29;20041;-70
2022/04/05 04:31:42;;;;;;;15.70;7.00;;;7.40;56.40;;;;;;6018876;29;20093;-70
2022/04/05 04:34:43;;;;;;;15.70;7.10;;;7.40;56.40;;;;;;6015846;29;20041;-70
2022/04/05 04:37:44;;;;;;;15.65;6.72;;;7.40;56.40;;;;;;6000681;29;20052;-69
2022/04/05 04:40:50;;;;;;;16.98;7.50;;;7.40;56.40;;;;;;6002875;29;20475;-70
2022/04/05 04:43:51;;;;;;;15.70;6.47;;;7.40;56.50;;;;;;6001945;29;20042;-71
2022/04/05 04:46:52;;;;;;;15.30;7.75;;;7.40;56.50;;;;;;6001968;29;20045;-69
2022/04/05 04:49:53;;;;;;;15.55;6.53;;;7.40;56.50;;;;;;6003442;29;20124;-70
2022/04/05 04:52:53;;;;;;;18.77;7.53;;;7.40;56.50;;;;;;5996134;29;20077;-70
2022/04/05 04:55:54;;;;;;;15.25;7.57;;;7.40;56.60;;;;;;6004920;29;20058;-69
2022/04/05 04:58:55;;;;;;;12.95;6.85;;;7.40;56.60;;;;;;6019643;29;20056;-70
2022/04/05 05:01:56;;;;;;;13.95;7.15;;;7.40;56.60;;;;;;5999553;29;20078;-70
2022/04/05 05:04:57;;;;;;;15.50;7.35;;;7.30;56.50;;;;;;6003548;29;20056;-71
2022/04/05 05:07:58;;;;;;;18.80;8.40;;;7.40;56.60;;;;;;6020903;29;20049;-70
2022/04/05 05:10:59;;;;;;;13.65;6.85;;;7.40;56.60;;;;;;6020057;29;20046;-71
2022/04/05 05:13:59;;;;;;;16.20;8.52;;;7.40;57.20;;;;;;6007571;29;20042;-72
2022/04/05 05:17:00;;;;;;;23.42;8.25;;;7.40;56.70;;;;;;6004872;29;20041;-71
2022/04/05 05:20:02;;;;;;;17.25;8.25;;;7.40;56.90;;;;;;6003609;29;20128;-71
2022/04/05 05:23:04;;;;;;;17.52;7.90;;;7.40;57.10;;;;;;5990539;29;20034;-71
2022/04/05 05:26:05;;;;;;;16.55;8.02;;;7.40;57.30;;;;;;6004057;29;20464;-71
2022/04/05 05:29:06;;;;;;;25.13;8.70;;;7.40;57.40;;;;;;5997829;29;20065;-71
2022/04/05 05:32:07;;;;;;;15.27;7.55;;;7.40;57.50;;;;;;6021541;29;20089;-71
2022/04/05 05:35:08;;;;;;;17.75;8.43;;;7.40;57.60;;;;;;6019306;29;20048;-75
2022/04/05 05:38:09;;;;;;;17.13;7.43;;;7.40;57.80;;;;;;5989618;29;20462;-73
2022/04/05 05:41:10;;;;;;;21.05;9.23;;;7.30;57.90;;;;;;6021022;29;20083;-70
2022/04/05 05:44:11;;;;;;;19.90;7.85;;;7.30;58.10;;;;;;6003929;29;20038;-71
2022/04/05 05:47:12;;;;;;;16.55;7.68;;;7.30;58.10;;;;;;6019878;29;20042;-72
2022/04/05 05:50:13;;;;;;;18.55;7.07;;;7.30;58.10;;;;;;6002394;29;20117;-71
2022/04/05 05:53:14;;;;;;;19.80;8.82;;;7.20;58.00;;;;;;6020595;29;20487;-70
2022/04/05 05:56:15;;;;;;;15.05;7.38;;;7.30;57.90;;;;;;6018413;29;20050;-70
2022/04/05 05:59:16;;;;;;;21.08;9.32;;;7.30;57.80;;;;;;6018319;29;20102;-71
2022/04/05 06:02:17;;;;;;;15.02;7.90;;;7.30;57.80;;;;;;6004979;29;20113;-70
2022/04/05 06:05:18;;;;;;;21.83;10.23;;;7.30;57.90;;;;;;6006733;29;20038;-71
2022/04/05 06:08:19;;;;;;;35.95;12.15;;;7.30;57.90;;;;;;6006011;29;20045;-71
2022/04/05 06:11:20;;;;;;;18.52;8.70;;;7.30;57.80;;;;;;6002702;29;20049;-71
2022/04/05 06:14:21;;;;;;;22.80;8.85;;;7.40;57.80;;;;;;6005058;29;20034;-70
2022/04/05 06:17:22;;;;;;;21.42;8.85;;;7.50;57.70;;;;;;5999472;29;20046;-71
2022/04/05 06:20:24;;;;;;;17.52;9.43;;;7.50;57.60;;;;;;6016273;29;20034;-71
2022/04/05 06:23:25;;;;;;;19.02;8.38;;;7.60;57.50;;;;;;6017556;29;20061;-71
2022/04/05 06:26:26;;;;;;;21.25;9.13;;;7.60;57.50;;;;;;5987183;29;20093;-71
2022/04/05 06:29:27;;;;;;;16.80;7.80;;;7.60;57.50;;;;;;6003536;29;20061;-71
2022/04/05 06:32:28;;;;;;;19.77;8.50;;;7.60;57.50;;;;;;6013229;29;20438;-71
2022/04/05 06:35:28;;;;;;;25.67;8.68;;;7.70;57.60;;;;;;6020421;29;20045;-71
2022/04/05 06:38:29;;;;;;;27.38;9.45;;;7.70;57.50;;;;;;6018726;29;20139;-72
2022/04/05 06:41:30;;;;;;;23.50;10.05;;;7.80;57.50;;;;;;6018683;29;20387;-71
2022/04/05 06:44:31;;;;;;;24.83;11.55;;;7.90;57.50;;;;;;5992514;29;20099;-71
2022/04/05 06:47:32;;;;;;;30.17;10.90;;;8.00;57.40;;;;;;5989345;29;20046;-70
2022/04/05 06:50:34;;;;;;;23.08;11.05;;;8.10;57.30;;;;;;6019150;29;20045;-71
2022/04/05 06:53:34;;;;;;;27.13;11.10;;;8.20;57.20;;;;;;5999150;29;20045;-70
2022/04/05 06:56:36;;;;;;;21.63;10.60;;;8.30;57.00;;;;;;6018075;29;20049;-70
2022/04/05 06:59:37;;;;;;;26.33;11.30;;;8.30;56.80;;;;;;6002344;29;20041;-69
2022/04/05 07:02:39;;;;;;;27.15;10.52;;;8.40;56.80;;;;;;6003344;29;20501;-71
2022/04/05 07:05:40;;;;;;;30.48;11.00;;;8.40;56.70;;;;;;6017199;29;20106;-70
2022/04/05 07:08:40;;;;;;;21.60;10.05;;;8.50;56.50;;;;;;6001122;29;20068;-71
2022/04/05 07:11:41;;;;;;;26.58;11.38;;;8.60;56.40;;;;;;6000503;29;20405;-71
2022/04/05 07:14:42;;;;;;;32.55;12.25;;;8.60;56.20;;;;;;6003011;29;20432;-70
2022/04/05 07:17:44;;;;;;;30.58;11.52;;;8.70;56.20;;;;;;6000871;29;20045;-72
2022/04/05 07:20:46;;;;;;;27.00;11.95;;;8.80;56.10;;;;;;6015673;29;20037;-70
2022/04/05 07:23:49;;;;;;;30.02;13.48;;;8.90;55.90;;;;;;6000995;29;20038;-70
2022/04/05 07:26:49;;;;;;;27.42;12.80;;;8.90;55.70;;;;;;6016935;29;20042;-71
2022/04/05 07:29:50;;;;;;;27.40;11.82;;;9.00;55.60;;;;;;6018957;29;20141;-70
2022/04/05 07:32:51;;;;;;;33.53;12.30;;;9.10;55.30;;;;;;6016725;29;20053;-71
2022/04/05 07:35:52;;;;;;;24.50;12.95;;;9.20;55.20;;;;;;6019383;29;20057;-71
2022/04/05 07:38:53;;;;;;;29.38;12.90;;;9.30;54.90;;;;;;6018138;29;20340;-71
2022/04/05 07:41:54;;;;;;;28.58;12.73;;;9.40;54.80;;;;;;6001229;29;20139;-71
2022/04/05 07:44:56;;;;;;;23.92;11.23;;;9.50;54.50;;;;;;6001266;29;20034;-72
2022/04/05 07:47:57;;;;;;;28.38;12.65;;;9.50;54.20;;;;;;5999186;29;20061;-71
2022/04/05 07:51:00;;;;;;;31.08;13.45;;;9.60;54.00;;;;;;6000774;29;20046;-70
2022/04/05 07:54:01;;;;;;;28.83;12.77;;;9.70;54.00;;;;;;6000479;29;20485;-72
2022/04/05 07:57:03;;;;;;;38.08;13.77;;;9.80;54.00;;;;;;5982493;29;20045;-71
2022/04/05 08:00:05;;;;;;;30.63;13.73;;;9.90;53.70;;;;;;6002832;29;20045;-71
2022/04/05 08:03:13;;;;;;;30.67;13.27;;;10.10;53.40;;;;;;6017242;29;20352;-71
2022/04/05 08:06:14;;;;;;;29.50;13.55;;;10.20;53.10;;;;;;6003826;29;20129;-71
2022/04/05 08:09:15;;;;;;;33.13;14.27;;;10.30;53.00;;;;;;5998498;29;20069;-71
2022/04/05 08:12:16;;;;;;;30.17;14.63;;;10.50;52.90;;;;;;5971612;29;20057;-71
2022/04/05 08:15:19;;;;;;;37.70;14.75;;;10.70;52.80;;;;;;6003125;29;20129;-72
2022/04/05 08:18:21;;;;;;;26.38;11.32;;;10.90;52.50;;;;;;5996528;29;20034;-71
2022/04/05 08:21:22;;;;;;;26.98;12.23;;;11.00;52.00;;;;;;5984266;29;20049;-71
2022/04/05 08:24:23;;;;;;;24.58;12.20;;;11.20;51.50;;;;;;6002469;29;20046;-73
2022/04/05 08:27:25;;;;;;;25.23;12.40;;;11.30;51.10;;;;;;6003418;29;20038;-73
2022/04/05 08:30:26;;;;;;;26.73;12.70;;;11.40;50.80;;;;;;5986764;29;20050;-70
2022/04/05 08:33:27;;;;;;;23.67;11.73;;;11.50;50.30;;;;;;5986926;29;20102;-70
2022/04/05 08:36:28;;;;;;;26.58;13.07;;;11.60;50.00;;;;;;5988409;29;20053;-70
2022/04/05 08:39:29;;;;;;;21.08;11.13;;;11.70;50.10;;;;;;5993093;29;20088;-71
2022/04/05 08:42:30;;;;;;;29.38;11.25;;;11.90;49.90;;;;;;5987741;29;20535;-71
2022/04/05 08:45:31;;;;;;;27.27;11.80;;;12.10;49.60;;;;;;5987563;29;20698;-70
2022/04/05 08:48:35;;;;;;;29.40;11.98;;;12.20;49.30;;;;;;6007256;29;20415;-70
2022/04/05 08:51:36;;;;;;;22.85;10.02;;;12.40;49.30;;;;;;5984739;29;20393;-71
2022/04/05 08:54:37;;;;;;;15.98;7.38;;;12.50;48.80;;;;;;5992173;29;20038;-72
2022/04/05 08:57:38;;;;;;;15.25;7.65;;;12.60;48.30;;;;;;5974594;29;20053;-71
2022/04/05 09:00:39;;;;;;;23.02;7.95;;;12.70;47.60;;;;;;5986332;29;20034;-71
2022/04/05 09:03:40;;;;;;;20.83;9.50;;;12.80;47.40;;;;;;5984166;29;20081;-71
2022/04/05 09:06:41;;;;;;;16.02;7.57;;;12.80;47.30;;;;;;6001861;29;20049;-71
2022/04/05 09:09:42;;;;;;;15.73;7.28;;;12.90;46.90;;;;;;5987581;29;20058;-71
2022/04/05 09:12:45;;;;;;;18.98;8.52;;;13.00;46.60;;;;;;6003106;29;20494;-71
2022/04/05 09:15:51;;;;;;;15.57;7.88;;;13.10;46.60;;;;;;5990558;29;20067;-72
2022/04/05 09:18:52;;;;;;;26.50;7.90;;;13.20;46.70;;;;;;5986155;29;20026;-72
2022/04/05 09:21:57;;;;;;;19.70;8.30;;;13.20;46.20;;;;;;5979585;29;20458;-72
2022/04/05 09:25:04;;;;;;;14.45;7.40;;;13.30;46.10;;;;;;5987340;29;20060;-70
2022/04/05 09:28:05;;;;;;;14.68;8.10;;;13.40;46.20;;;;;;6001521;29;20454;-72
2022/04/05 09:31:08;;;;;;;15.35;7.43;;;13.50;45.80;;;;;;6007157;29;20038;-72
2022/04/05 09:34:12;;;;;;;13.32;6.75;;;13.60;45.20;;;;;;5983967;29;20578;-70
2022/04/05 09:37:13;;;;;;;13.13;6.97;;;13.60;44.90;;;;;;5998968;29;20062;-71
2022/04/05 09:40:18;;;;;;;16.10;7.65;;;13.60;44.40;;;;;;6008344;29;20038;-71
2022/04/05 09:43:21;;;;;;;13.23;6.70;;;13.70;44.60;;;;;;5984530;29;20117;-71
2022/04/05 09:46:23;;;;;;;13.73;7.10;;;13.80;44.60;;;;;;5983878;29;20046;-71
2022/04/05 09:49:31;;;;;;;12.88;7.75;;;13.90;44.40;;;;;;6000268;29;20062;-71
2022/04/05 09:52:34;;;;;;;11.98;6.25;;;13.90;44.30;;;;;;5992048;29;20294;-70
2022/04/05 09:55:35;;;;;;;14.75;6.90;;;14.10;44.20;;;;;;6002712;29;20046;-72
2022/04/05 09:59:06;;;;;;;18.33;7.47;;;14.20;43.80;;;;;;5999791;29;20341;-71
2022/04/05 10:02:12;;;;;;;13.90;7.25;;;14.30;43.40;;;;;;5990316;29;20073;-71
2022/04/05 10:05:13;;;;;;;15.07;7.88;;;14.40;42.40;;;;;;5999761;29;20061;-72
2022/04/05 10:08:13;;;;;;;14.88;7.72;;;14.30;42.30;;;;;;5980733;29;20045;-71
2022/04/05 10:11:15;;;;;;;14.63;7.28;;;14.30;42.10;;;;;;5979634;29;20053;-72
2022/04/05 10:14:20;;;;;;;15.63;7.07;;;14.30;42.00;;;;;;5986565;29;20037;-72
2022/04/05 10:17:27;;;;;;;13.23;6.55;;;14.30;41.30;;;;;;6001790;29;20364;-71
2022/04/05 10:20:28;;;;;;;20.90;7.00;;;14.30;41.10;;;;;;6014230;29;20094;-72
2022/04/05 10:23:31;;;;;;;11.70;5.80;;;14.30;41.30;;;;;;5997202;29;20041;-71
2022/04/05 10:26:38;;;;;;;11.00;5.50;;;14.40;41.30;;;;;;6014721;29;20113;-71
2022/04/05 10:29:40;;;;;;;12.07;5.15;;;14.40;40.50;;;;;;6002738;29;20075;-71
2022/04/05 10:32:55;;;;;;;10.88;4.50;;;14.50;39.90;;;;;;5998245;29;20045;-73
2022/04/05 10:36:00;;;;;;;15.65;6.30;;;14.60;39.40;;;;;;6014806;29;20030;-72
2022/04/05 10:39:15;;;;;;;14.98;5.32;;;14.70;39.30;;;;;;6000708;29;20076;-72
2022/04/05 10:42:21;;;;;;;8.20;4.28;;;15.00;39.10;;;;;;5998519;29;20033;-71
2022/04/05 10:45:30;;;;;;;11.80;4.57;;;15.40;38.00;;;;;;6016552;29;20097;-71
2022/04/05 10:48:34;;;;;;;7.00;3.78;;;16.00;37.10;;;;;;6014745;29;20045;-71
2022/04/05 10:52:15;;;;;;;12.23;4.40;;;16.50;35.80;;;;;;5996287;29;20033;-72
2022/04/05 10:55:20;;;;;;;7.97;4.03;;;17.00;33.90;;;;;;6019953;29;20029;-72
2022/04/05 10:58:22;;;;;;;7.47;3.97;;;17.30;32.80;;;;;;6003151;29;20531;-72
2022/04/05 11:01:25;;;;;;;8.32;3.85;;;17.60;32.60;;;;;;6018052;29;20190;-72
2022/04/05 11:04:29;;;;;;;9.50;5.07;;;18.00;32.40;;;;;;6001177;29;20044;-71
2022/04/05 11:07:52;;;;;;;9.73;3.90;;;18.40;32.00;;;;;;5999950;29;20233;-71
2022/04/05 11:10:58;;;;;;;6.90;3.55;;;18.60;30.80;;;;;;6000163;29;20388;-71
2022/04/05 11:14:03;;;;;;;13.35;4.05;;;18.80;30.00;;;;;;6002608;29;20075;-71
2022/04/05 11:17:05;;;;;;;7.47;3.40;;;19.10;30.30;;;;;;6001156;29;20140;-72
2022/04/05 11:20:08;;;;;;;7.53;4.07;;;19.40;30.20;;;;;;6002209;29;20044;-72
2022/04/05 11:23:10;;;;;;;8.35;3.90;;;19.70;30.00;;;;;;6016604;29;20086;-71
2022/04/05 11:26:29;;;;;;;7.65;3.58;;;19.90;29.70;;;;;;6000837;29;20045;-71
2022/04/05 11:29:30;;;;;;;;;;;20.00;29.40;;;;;;6004683;29;20034;-71
2022/04/05 11:32:31;;;;;;;7.22;3.72;;;20.00;29.40;;;;;;5999420;29;19920;-71
2022/04/05 11:35:52;;;;;;;6.53;3.30;;;19.90;29.00;;;;;;6002800;29;20101;-72
2022/04/05 11:38:57;;;;;;;7.55;3.65;;;19.80;28.30;;;;;;6012275;29;20030;-73
2022/04/05 11:42:01;;;;;;;9.68;3.85;;;19.90;28.20;;;;;;5994617;29;20069;-71
2022/04/05 11:45:05;;;;;;;10.50;4.28;;;20.00;28.50;;;;;;5983326;29;20117;-72
2022/04/05 11:48:06;;;;;;;7.65;3.40;;;20.20;28.60;;;;;;5997301;29;20052;-72
2022/04/05 11:51:09;;;;;;;7.60;3.92;;;20.40;28.50;;;;;;5998224;29;20410;-71
2022/04/05 11:54:19;;;;;;;10.48;3.30;;;20.80;28.00;;;;;;6014547;29;20117;-72
2022/04/05 11:57:20;;;;;;;7.32;3.30;;;21.20;27.60;;;;;;6000471;29;20038;-73
2022/04/05 12:00:21;;;;;;;7.30;3.10;;;21.80;27.00;;;;;;6002059;29;20078;-72
2022/04/05 12:03:22;;;;;;;7.72;3.58;;;22.20;26.60;;;;;;5999245;29;20166;-71
2022/04/05 12:06:29;;;;;;;9.98;3.47;;;22.60;26.10;;;;;;5988056;29;20052;-71
2022/04/05 12:09:34;;;;;;;8.25;3.45;;;23.10;25.70;;;;;;6019500;29;20095;-73
2022/04/05 12:12:35;;;;;;;7.50;3.67;;;23.70;25.20;;;;;;6004370;29;20038;-73
2022/04/05 12:15:37;;;;;;;6.57;3.53;;;24.40;24.60;;;;;;5989552;29;20391;-72
2022/04/05 12:18:39;;;;;;;9.00;3.60;;;24.90;24.00;;;;;;5998944;29;20106;-72
2022/04/05 12:21:40;;;;;;;8.13;3.80;;;25.40;23.00;;;;;;6019209;29;20553;-72
2022/04/05 12:24:43;;;;;;;7.18;3.67;;;25.80;22.60;;;;;;6020647;29;20042;-72
2022/04/05 12:27:53;;;;;;;6.55;3.38;;;26.20;22.10;;;;;;6002765;29;20635;-71
2022/04/05 12:31:23;;;;;;;5.75;3.38;;;26.60;21.50;;;;;;6000753;29;20045;-71
2022/04/05 12:34:24;;;;;;;11.07;3.63;;;27.10;21.20;;;;;;6018720;29;20041;-71
2022/04/05 12:37:25;;;;;;;9.55;3.63;;;27.70;20.50;;;;;;6016083;29;20205;-74
2022/04/05 12:40:27;;;;;;;6.35;3.28;;;28.00;20.20;;;;;;6002284;29;20480;-71
2022/04/05 12:43:28;;;;;;;8.38;3.67;;;28.30;19.80;;;;;;6015024;29;20042;-74
2022/04/05 12:46:59;;;;;;;6.43;3.50;;;28.60;19.40;;;;;;6003130;29;20033;-73
2022/04/05 12:50:04;;;;;;;7.38;3.35;;;29.20;19.20;;;;;;6017963;29;20038;-71
2022/04/05 12:53:07;;;;;;;6.88;3.35;;;29.90;18.70;;;;;;6015384;29;20137;-71
2022/04/05 12:56:11;;;;;;;8.65;3.10;;;30.40;18.10;;;;;;5998983;29;20417;-73
2022/04/05 12:59:12;;;;;;;9.13;3.90;;;30.80;17.70;;;;;;6018919;29;20034;-73
2022/04/05 13:02:21;;;;;;;5.93;3.10;;;31.00;17.40;;;;;;6017502;29;20186;-72
2022/04/05 13:08:54;;;;;;;5.47;2.97;;;31.40;16.90;;;;;;6016187;29;20041;-72
2022/04/05 13:12:15;;;;;;;6.13;3.17;;;31.60;16.70;;;;;;5995594;29;20193;-74
2022/04/05 13:15:20;;;;;;;5.40;2.95;;;31.80;16.70;;;;;;6002351;29;20068;-71
2022/04/05 13:18:31;;;;;;;5.25;3.03;;;32.10;16.40;;;;;;6002307;29;20053;-72
2022/04/05 13:21:43;;;;;;;5.35;2.92;;;32.40;16.20;;;;;;6000106;29;20049;-72
2022/04/05 13:24:46;;;;;;;10.75;3.08;;;32.70;16.00;;;;;;6017141;29;20042;-72
2022/04/05 13:27:59;;;;;;;8.52;4.88;;;32.90;15.80;;;;;;6019192;29;20069;-72
2022/04/05 13:31:14;;;;;;;8.13;3.20;;;32.90;15.90;;;;;;5998790;29;20038;-72
2022/04/05 13:34:18;;;;;;;5.30;3.13;;;33.00;16.20;;;;;;6002684;29;20468;-73
2022/04/05 13:37:21;;;;;;;4.32;3.28;;;33.20;15.40;;;;;;6001444;29;20049;-71
2022/04/05 13:40:22;;;;;;;9.60;2.40;;;33.00;15.30;;;;;;6004872;29;20109;-73
2022/04/05 13:43:23;;;;;;;8.07;3.05;;;32.80;15.40;;;;;;6000484;29;20045;-72
2022/04/05 13:46:24;;;;;;;13.32;3.17;;;32.50;15.40;;;;;;6017069;29;20101;-72
2022/04/05 13:49:25;;;;;;;4.32;2.70;;;32.50;15.50;;;;;;6002528;29;20393;-72
2022/04/05 13:52:26;;;;;;;4.93;2.58;;;32.10;15.50;;;;;;6001187;29;20034;-72
2022/04/05 13:55:27;;;;;;;5.78;3.45;;;31.00;16.00;;;;;;6003839;29;20332;-74
2022/04/05 13:58:28;;;;;;;5.63;2.92;;;29.70;16.60;;;;;;6002348;29;20034;-73
2022/04/05 14:01:29;;;;;;;6.97;3.15;;;28.50;17.40;;;;;;6015493;29;20078;-71
2022/04/05 14:04:30;;;;;;;7.78;3.78;;;27.40;18.10;;;;;;6020248;29;20334;-71
2022/04/05 14:07:37;;;;;;;8.00;3.60;;;26.50;18.80;;;;;;5989556;29;20061;-72
2022/04/05 14:10:38;;;;;;;6.97;3.25;;;25.60;19.50;;;;;;5998511;29;20076;-71
2022/04/05 14:13:40;;;;;;;9.48;3.10;;;24.90;20.10;;;;;;6017417;29;20097;-73
2022/04/05 14:16:41;;;;;;;9.27;3.55;;;24.30;20.80;;;;;;6001114;29;20483;-72
2022/04/05 14:19:41;;;;;;;6.53;3.47;;;23.80;21.40;;;;;;6000483;29;20048;-73
2022/04/05 14:22:43;;;;;;;7.72;3.58;;;23.30;22.00;;;;;;6018081;29;20182;-73
2022/04/05 14:25:44;;;;;;;8.55;3.28;;;22.70;22.70;;;;;;6002781;29;20065;-72
2022/04/05 14:28:46;;;;;;;4.95;2.88;;;22.20;23.30;;;;;;6001124;29;20052;-71
2022/04/05 14:31:47;;;;;;;8.35;3.00;;;21.80;23.90;;;;;;6017545;29;20430;-71
2022/04/05 14:34:48;;;;;;;5.57;2.95;;;21.40;24.30;;;;;;5984399;29;20065;-71
2022/04/05 14:37:49;;;;;;;7.63;2.65;;;21.20;24.70;;;;;;6000485;29;20105;-71
2022/04/05 14:40:50;;;;;;;4.00;2.63;;;21.00;25.10;;;;;;6001146;29;20046;-72
2022/04/05 14:43:51;;;;;;;9.02;2.78;;;20.90;25.50;;;;;;6004444;29;20038;-72
2022/04/05 14:46:52;;;;;;;4.88;2.38;;;20.70;26.00;;;;;;5997480;29;20034;-72
2022/04/05 14:49:54;;;;;;;5.85;2.60;;;20.50;26.30;;;;;;6015158;29;20037;-71
2022/04/05 14:52:55;;;;;;;5.53;2.22;;;20.40;26.50;;;;;;6019161;29;20037;-72
2022/04/05 14:55:58;;;;;;;4.45;2.70;;;20.30;26.80;;;;;;5996670;29;20070;-71
2022/04/05 14:58:59;;;;;;;6.88;2.38;;;20.20;27.20;;;;;;5985681;29;20270;-72
2022/04/05 15:01:59;;;;;;;3.55;1.95;;;20.20;27.50;;;;;;6015806;29;20491;-71
2022/04/05 15:05:00;;;;;;;4.32;2.60;;;20.10;27.90;;;;;;6002072;29;20049;-71
2022/04/05 15:08:03;;;;;;;4.70;2.45;;;20.00;28.30;;;;;;6016859;29;20034;-71
2022/04/05 15:11:04;;;;;;;12.50;3.25;;;20.00;28.40;;;;;;5999530;29;20042;-71
2022/04/05 15:14:06;;;;;;;4.47;2.47;;;19.90;28.70;;;;;;6000438;29;20045;-71
2022/04/05 15:17:06;;;;;;;7.82;2.85;;;19.90;29.20;;;;;;6007389;29;20180;-71
2022/04/05 15:20:08;;;;;;;4.05;2.60;;;19.80;29.00;;;;;;6002270;29;20128;-71
2022/04/05 15:23:09;;;;;;;4.30;2.28;;;19.80;29.20;;;;;;6015697;29;20038;-71
2022/04/05 15:26:10;;;;;;;11.45;3.15;;;19.80;29.40;;;;;;6000799;29;20069;-70
2022/04/05 15:29:11;;;;;;;5.32;2.30;;;19.80;29.60;;;;;;6003098;29;20061;-71
2022/04/05 15:32:14;;;;;;;4.45;2.00;;;19.80;29.70;;;;;;6001768;29;20086;-71
2022/04/05 15:35:15;;;;;;;9.52;2.40;;;19.80;29.80;;;;;;6015406;29;20049;-71
2022/04/05 15:38:16;;;;;;;4.97;2.33;;;19.80;29.90;;;;;;6002023;29;20042;-71
2022/04/05 15:41:17;;;;;;;10.07;2.83;;;19.90;29.90;;;;;;5998359;29;20042;-71
2022/04/05 15:44:19;;;;;;;7.20;2.42;;;19.80;29.90;;;;;;5999249;29;20051;-71
2022/04/05 15:47:20;;;;;;;5.32;2.58;;;19.90;29.90;;;;;;5987845;29;20073;-71
2022/04/05 15:50:22;;;;;;;6.22;2.95;;;19.90;30.10;;;;;;6000036;29;20110;-71